Wallace, New York
Current Conditions -  °F | °C
As of 12:54 PM on Wednesday 26 Nov 2014 (Local Time) from KDSV Reporting Station
Overcast Overcast  
Wind Chill: 36°   Ceiling: 9000
Heat Index: 36°   Visibility: 10mi
Dew Point: 24°   Wind: 0mph
Humidity: 62%   Direction: NA
Pressure: 30.11"   Gusts: NA
Location:  42.4193°N, 77.4498°W
Report Text: KDSV 261754Z AUTO 00000KT 10SM FEW045 OVC090 02/M04 A3011 RMK AO2 SLP211 T00221044 10022 20006 58011
Loading
Personal Weather Stations






























Interactive Weather Map New forecast layout! Learn more

10-Day Weather Forecast

Advertisements
Track Severe Weather on mobile